Time;durP1;ratioP1;P1;durP2;ratioP2;P2;SDS_P1;SDS_P2;PMS_P1;PMS_P2;Temp;Humidity;BMP_temperature;BMP_pressure;BME280_temperature;BME280_humidity;BME280_pressure;Samples;Min_cycle;Max_cycle;Signal;HPM_P1;HPM_P2
2022/09/23 00:00:35;;;;;;;14.75;10.80;;;307.30;2304.00;;;;;;5125454;27;20064;-78
2022/09/23 00:03:01;;;;;;;20.25;11.57;;;307.20;2304.00;;;;;;5107909;27;20072;-78
2022/09/23 00:05:28;;;;;;;17.23;10.52;;;307.20;2304.00;;;;;;5106138;27;20012;-77
2022/09/23 00:07:54;;;;;;;16.98;11.05;;;307.20;2304.00;;;;;;5102062;28;20036;-77
2022/09/23 00:10:21;;;;;;;18.05;11.32;;;307.30;2304.00;;;;;;5097874;28;20105;-78
2022/09/23 00:12:47;;;;;;;21.67;11.50;;;307.30;2304.00;;;;;;5100672;28;20059;-78
2022/09/23 00:15:13;;;;;;;17.85;11.25;;;307.20;2304.00;;;;;;5111131;28;20476;-77
2022/09/23 00:17:39;;;;;;;19.30;12.02;;;307.30;2304.00;;;;;;5097296;28;20446;-78
2022/09/23 00:20:08;;;;;;;22.20;11.20;;;307.30;2304.00;;;;;;5098527;28;20107;-77
2022/09/23 00:22:35;;;;;;;18.95;11.98;;;307.20;2304.00;;;;;;5098316;28;20020;-78
2022/09/23 00:25:04;;;;;;;19.55;10.80;;;307.30;2304.00;;;;;;5102833;28;20028;-77
2022/09/23 00:27:32;;;;;;;17.73;10.93;;;307.30;2304.00;;;;;;5106389;28;20118;-77
2022/09/23 00:29:58;;;;;;;16.98;11.40;;;307.30;2304.00;;;;;;5095678;28;20489;-78
2022/09/23 00:32:25;;;;;;;23.15;11.38;;;307.30;2304.00;;;;;;5096391;28;20051;-77
2022/09/23 00:34:51;;;;;;;19.05;11.77;;;307.30;2304.00;;;;;;5090846;28;20059;-77
2022/09/23 00:37:17;;;;;;;19.70;11.95;;;307.30;2304.00;;;;;;5099073;28;20020;-77
2022/09/23 00:39:44;;;;;;;15.68;10.40;;;307.30;2304.00;;;;;;5094809;28;20027;-77
2022/09/23 00:42:16;;;;;;;16.05;10.88;;;307.30;2304.00;;;;;;5102514;28;20023;-78
2022/09/23 00:44:58;;;;;;;16.63;10.57;;;307.30;2304.00;;;;;;5101205;28;20024;-77
2022/09/23 00:47:33;;;;;;;15.23;10.32;;;307.30;2304.00;;;;;;5102557;28;20114;-77
2022/09/23 00:50:25;;;;;;;15.95;11.85;;;307.30;2304.00;;;;;;5101575;28;20016;-77
2022/09/23 00:52:54;;;;;;;17.58;10.55;;;307.30;2304.00;;;;;;5105177;28;20114;-77
2022/09/23 00:55:26;;;;;;;14.30;9.95;;;307.30;2304.00;;;;;;5103560;28;20055;-77
2022/09/23 00:57:56;;;;;;;18.23;10.63;;;307.30;2304.00;;;;;;5105622;28;20085;-78
2022/09/23 01:00:22;;;;;;;15.40;10.20;;;307.20;2304.00;;;;;;5096694;28;20027;-77
2022/09/23 01:02:48;;;;;;;19.20;11.48;;;282.50;2278.40;;;;;;5103094;28;20060;-77
2022/09/23 01:05:16;;;;;;;18.40;10.82;;;282.50;2278.40;;;;;;5093585;28;20016;-77
2022/09/23 01:07:42;;;;;;;17.65;10.48;;;282.40;2278.40;;;;;;5103993;28;20076;-78
2022/09/23 01:10:09;;;;;;;16.50;10.05;;;282.30;2278.40;;;;;;5097940;28;20040;-78
2022/09/23 01:12:44;;;;;;;17.40;11.05;;;282.20;2278.40;;;;;;5106013;28;20111;-77
2022/09/23 01:15:20;;;;;;;18.38;10.55;;;282.20;2278.40;;;;;;5094315;28;20016;-77
2022/09/23 01:18:11;;;;;;;19.60;11.20;;;282.20;2278.40;;;;;;5099627;28;20020;-77
2022/09/23 01:20:51;;;;;;;17.48;10.98;;;282.10;2278.40;;;;;;5092834;28;20024;-78
2022/09/23 01:23:38;;;;;;;22.17;10.85;;;282.20;2278.40;;;;;;5078511;28;20017;-78
2022/09/23 01:26:07;;;;;;;18.83;11.23;;;282.20;2278.40;;;;;;5094667;28;20374;-77
2022/09/23 01:29:18;;;;;;;18.98;11.02;;;282.20;2278.40;;;;;;5103858;28;20420;-77
2022/09/23 01:32:14;;;;;;;17.02;10.20;;;282.20;2278.40;;;;;;5080465;28;20074;-77
2022/09/23 01:35:06;;;;;;;17.92;10.35;;;282.10;2278.40;;;;;;5077355;28;20165;-78
2022/09/23 01:37:58;;;;;;;14.13;9.27;;;282.10;2278.40;;;;;;5070319;28;20214;-77
2022/09/23 01:41:11;;;;;;;18.60;9.93;;;282.10;2278.40;;;;;;5077254;28;20039;-77
2022/09/23 01:43:59;;;;;;;13.20;9.73;;;282.00;2278.40;;;;;;5073465;28;20505;-77
2022/09/23 01:46:37;;;;;;;14.98;10.27;;;281.80;2278.40;;;;;;5058040;28;20040;-77
2022/09/23 01:49:11;;;;;;;14.95;9.45;;;281.70;2278.40;;;;;;5058339;28;20525;-77
2022/09/23 01:51:42;;;;;;;15.00;10.45;;;281.80;2278.40;;;;;;5069414;28;20016;-78
2022/09/23 01:54:17;;;;;;;14.77;9.55;;;281.90;2278.40;;;;;;5061107;28;20032;-77
2022/09/23 01:56:57;;;;;;;18.85;10.38;;;281.80;2278.40;;;;;;5074990;28;20036;-76
2022/09/23 01:59:43;;;;;;;14.27;8.80;;;282.00;2278.40;;;;;;5081520;28;20024;-78
2022/09/23 02:02:13;;;;;;;13.52;9.10;;;282.00;2278.40;;;;;;5058446;28;20082;-77
2022/09/23 02:04:50;;;;;;;14.55;8.73;;;281.90;2278.40;;;;;;5058136;28;20036;-77
2022/09/23 02:07:15;;;;;;;;;;;281.90;2278.40;;;;;;5075273;28;20570;-78
2022/09/23 02:09:44;;;;;;;13.38;9.13;;;281.80;2278.40;;;;;;5130203;27;20006;-77
2022/09/23 02:12:16;;;;;;;13.38;8.07;;;281.80;2278.40;;;;;;5109974;28;20034;-78
2022/09/23 02:14:45;;;;;;;14.10;9.07;;;281.90;2278.40;;;;;;5105814;27;20012;-77
2022/09/23 02:17:20;;;;;;;12.23;7.80;;;281.80;2278.40;;;;;;5118610;27;20026;-77
2022/09/23 02:19:52;;;;;;;13.40;9.43;;;281.80;2278.40;;;;;;5108497;28;20759;-77
2022/09/23 02:22:33;;;;;;;13.50;8.52;;;281.80;2278.40;;;;;;5116564;27;20422;-77
2022/09/23 02:24:59;;;;;;;12.15;7.80;;;281.90;2278.40;;;;;;5085326;27;20104;-77
2022/09/23 02:27:46;;;;;;;11.13;7.47;;;282.00;2278.40;;;;;;5118645;28;20489;-77
2022/09/23 02:30:17;;;;;;;11.98;8.15;;;282.00;2278.40;;;;;;5114902;28;20043;-77
2022/09/23 02:32:48;;;;;;;13.18;8.07;;;282.00;2278.40;;;;;;5103853;28;20448;-78
2022/09/23 02:35:54;;;;;;;11.43;7.60;;;282.10;2278.40;;;;;;5112664;28;20428;-78
2022/09/23 02:38:30;;;;;;;11.65;7.13;;;282.10;2278.40;;;;;;5042449;28;20040;-77
2022/09/23 02:41:25;;;;;;;9.52;6.18;;;282.10;2278.40;;;;;;5032267;28;20030;-77
2022/09/23 02:44:01;;;;;;;12.35;8.45;;;282.10;2278.40;;;;;;5039906;28;20108;-77
2022/09/23 02:46:28;;;;;;;19.10;8.23;;;282.10;2278.40;;;;;;5037065;28;20024;-77
2022/09/23 02:49:03;;;;;;;12.80;8.30;;;282.20;2278.40;;;;;;5038531;28;20025;-77
2022/09/23 02:51:36;;;;;;;11.57;8.10;;;282.10;2278.40;;;;;;5040483;28;20088;-77
2022/09/23 02:54:05;;;;;;;13.70;7.20;;;282.10;2278.40;;;;;;5033415;28;20112;-77
2022/09/23 02:56:32;;;;;;;13.30;8.85;;;282.10;2278.40;;;;;;5039740;28;20104;-77
2022/09/23 02:58:59;;;;;;;15.20;9.00;;;282.10;2278.40;;;;;;5026741;28;20411;-77
2022/09/23 03:01:39;;;;;;;12.80;8.32;;;282.00;2278.40;;;;;;5043093;28;20033;-78
2022/09/23 03:04:16;;;;;;;13.93;8.93;;;282.10;2278.40;;;;;;5032780;28;20022;-77
2022/09/23 03:07:05;;;;;;;12.88;8.38;;;282.00;2278.40;;;;;;5041155;28;20033;-77
2022/09/23 03:09:51;;;;;;;10.07;7.40;;;282.00;2278.40;;;;;;5060001;28;20123;-78
2022/09/23 03:12:24;;;;;;;;;;;282.00;2278.40;;;;;;5041368;28;20026;-77
2022/09/23 03:15:00;;;;;;;11.98;8.32;;;282.00;2278.40;;;;;;5125142;27;19919;-77
2022/09/23 03:17:33;;;;;;;11.98;7.57;;;282.00;2278.40;;;;;;5104203;27;20012;-78
2022/09/23 03:20:17;;;;;;;15.18;7.68;;;282.00;2278.40;;;;;;5124474;27;20011;-77
2022/09/23 03:22:50;;;;;;;13.30;8.57;;;282.00;2278.40;;;;;;5116813;27;20019;-77
2022/09/23 03:25:21;;;;;;;11.52;7.47;;;282.00;2278.40;;;;;;5117086;27;20084;-77
2022/09/23 03:27:47;;;;;;;15.02;8.05;;;282.00;2278.40;;;;;;5107574;27;20031;-78
2022/09/23 03:30:13;;;;;;;12.98;8.27;;;282.00;2278.40;;;;;;5105386;28;20026;-77
2022/09/23 03:32:44;;;;;;;13.88;8.25;;;282.10;2278.40;;;;;;5139541;27;20019;-77
2022/09/23 03:35:12;;;;;;;10.35;7.22;;;282.00;2278.40;;;;;;5123766;27;20109;-78
2022/09/23 03:37:52;;;;;;;14.90;8.45;;;282.00;2278.40;;;;;;5096944;28;20057;-77
2022/09/23 03:40:40;;;;;;;11.32;7.35;;;282.00;2278.40;;;;;;5137628;27;20050;-77
2022/09/23 03:43:06;;;;;;;11.65;7.03;;;282.00;2278.40;;;;;;5120651;27;20084;-77
2022/09/23 03:45:33;;;;;;;12.20;7.53;;;281.80;2278.40;;;;;;5104308;27;20532;-77
2022/09/23 03:47:59;;;;;;;14.63;8.05;;;282.00;2278.40;;;;;;5099678;28;20035;-77
2022/09/23 03:50:25;;;;;;;14.07;8.13;;;282.00;2278.40;;;;;;5102103;27;20032;-77
2022/09/23 03:52:51;;;;;;;9.75;6.93;;;282.00;2278.40;;;;;;5118228;27;20035;-77
2022/09/23 03:55:18;;;;;;;;;;;281.90;2278.40;;;;;;5115226;28;20027;-75
2022/09/23 03:57:44;;;;;;;11.60;7.65;;;281.80;2278.40;;;;;;5117350;27;19909;-76
2022/09/23 04:00:11;;;;;;;11.65;7.22;;;281.70;2278.40;;;;;;5120143;27;20127;-76
2022/09/23 04:02:37;;;;;;;11.77;7.63;;;281.80;2278.40;;;;;;5117363;27;20047;-76
2022/09/23 04:05:03;;;;;;;11.15;7.88;;;281.80;2278.40;;;;;;5117461;27;20055;-76
2022/09/23 04:07:28;;;;;;;10.15;6.60;;;281.80;2278.40;;;;;;5130043;27;20031;-77
2022/09/23 04:09:54;;;;;;;15.80;7.53;;;281.80;2278.40;;;;;;5115339;27;20040;-76
2022/09/23 04:12:20;;;;;;;10.15;6.80;;;281.60;2278.40;;;;;;5118364;27;20026;-77
2022/09/23 04:14:46;;;;;;;11.98;7.53;;;281.60;2278.40;;;;;;5133089;27;20047;-76
2022/09/23 04:17:13;;;;;;;10.45;7.50;;;256.90;2252.80;;;;;;5125474;27;20020;-76
2022/09/23 04:19:39;;;;;;;15.23;7.90;;;256.80;2252.80;;;;;;5107055;27;20064;-77
2022/09/23 04:22:05;;;;;;;12.65;8.48;;;256.20;2252.80;;;;;;5118723;27;20028;-76
2022/09/23 04:24:30;;;;;;;11.10;6.75;;;256.60;2252.80;;;;;;5099485;28;20115;-76
2022/09/23 04:26:56;;;;;;;9.43;6.80;;;256.70;2252.80;;;;;;5122619;27;20012;-76
2022/09/23 04:29:24;;;;;;;11.63;6.95;;;256.70;2252.80;;;;;;5101411;28;20086;-76
2022/09/23 04:31:51;;;;;;;15.02;8.15;;;256.60;2252.80;;;;;;5109344;27;20011;-74
2022/09/23 04:34:16;;;;;;;13.07;7.70;;;256.60;2252.80;;;;;;5107047;28;20073;-75
2022/09/23 04:36:44;;;;;;;12.93;8.27;;;256.60;2252.80;;;;;;5135256;27;20019;-77
2022/09/23 04:39:10;;;;;;;10.55;7.70;;;256.70;2252.80;;;;;;5119389;27;20028;-76
2022/09/23 04:41:36;;;;;;;17.52;8.13;;;256.60;2252.80;;;;;;5103712;27;20055;-77
2022/09/23 04:44:03;;;;;;;14.75;7.90;;;256.50;2252.80;;;;;;5122410;27;20019;-77
2022/09/23 04:46:29;;;;;;;18.20;8.40;;;256.40;2252.80;;;;;;5118440;27;20024;-76
2022/09/23 04:48:54;;;;;;;14.82;8.35;;;256.40;2252.80;;;;;;5101616;27;20043;-77
2022/09/23 04:51:21;;;;;;;;;;;256.50;2252.80;;;;;;5101201;28;20488;-76
2022/09/23 04:53:48;;;;;;;16.55;7.78;;;256.40;2252.80;;;;;;5101330;27;19956;-78
2022/09/23 04:56:26;;;;;;;21.40;12.18;;;256.20;2252.80;;;;;;5106393;27;20019;-77
2022/09/23 04:58:53;;;;;;;32.38;8.77;;;256.20;2252.80;;;;;;5125654;27;20019;-77
2022/09/23 05:01:18;;;;;;;24.25;7.18;;;256.20;2252.80;;;;;;5103642;28;20073;-77
2022/09/23 05:03:45;;;;;;;15.52;5.95;;;256.10;2252.80;;;;;;5120104;27;20015;-77
2022/09/23 05:06:13;;;;;;;12.77;5.85;;;256.20;2252.80;;;;;;5109826;27;20544;-77
2022/09/23 05:08:40;;;;;;;11.25;7.35;;;256.40;2252.80;;;;;;5121436;27;20092;-75
2022/09/23 05:11:06;;;;;;;20.52;8.10;;;256.40;2252.80;;;;;;5103422;27;20488;-76
2022/09/23 05:13:32;;;;;;;11.02;7.00;;;256.50;2252.80;;;;;;5107482;27;20035;-78
2022/09/23 05:16:06;;;;;;;13.90;7.63;;;256.60;2252.80;;;;;;5124890;27;20095;-78
2022/09/23 05:18:39;;;;;;;13.80;7.93;;;256.70;2252.80;;;;;;5101947;28;20027;-77
2022/09/23 05:21:06;;;;;;;12.90;7.82;;;256.70;2252.80;;;;;;5127653;27;20019;-78
2022/09/23 05:23:32;;;;;;;15.13;7.65;;;256.80;2252.80;;;;;;5123583;27;20476;-77
2022/09/23 05:26:01;;;;;;;12.43;7.65;;;256.90;2252.80;;;;;;5113392;27;20027;-79
2022/09/23 05:28:31;;;;;;;11.35;6.97;;;281.60;2278.40;;;;;;5118371;27;20045;-78
2022/09/23 05:31:03;;;;;;;10.98;7.68;;;281.70;2278.40;;;;;;5133972;27;20085;-77
2022/09/23 05:33:30;;;;;;;12.57;8.48;;;281.80;2278.40;;;;;;5119197;27;20027;-78
2022/09/23 05:35:55;;;;;;;14.23;8.93;;;281.80;2278.40;;;;;;5115731;27;20034;-78
2022/09/23 05:38:21;;;;;;;14.95;8.48;;;281.90;2278.40;;;;;;5111818;28;20405;-78
2022/09/23 05:40:58;;;;;;;12.48;8.88;;;281.90;2278.40;;;;;;5113777;28;20385;-78
2022/09/23 05:43:24;;;;;;;;;;;282.00;2278.40;;;;;;5095452;28;20027;-78
2022/09/23 05:45:50;;;;;;;12.77;8.17;;;281.80;2278.40;;;;;;5095146;28;19963;-76
2022/09/23 05:48:17;;;;;;;16.00;7.90;;;282.00;2278.40;;;;;;5114712;27;20032;-77
2022/09/23 05:50:52;;;;;;;13.00;8.25;;;282.20;2278.40;;;;;;5093703;27;20027;-78
2022/09/23 05:53:18;;;;;;;12.57;9.02;;;282.20;2278.40;;;;;;5099813;28;20055;-76
2022/09/23 05:55:44;;;;;;;13.98;8.40;;;282.30;2278.40;;;;;;5112772;28;20023;-78
2022/09/23 05:58:13;;;;;;;16.30;8.05;;;282.40;2278.40;;;;;;5091588;28;20020;-77
2022/09/23 06:00:40;;;;;;;12.50;8.88;;;282.50;2278.40;;;;;;5107659;28;20028;-77
2022/09/23 06:03:19;;;;;;;14.50;9.55;;;282.40;2278.40;;;;;;5120405;27;20019;-76
2022/09/23 06:05:45;;;;;;;14.02;9.07;;;282.40;2278.40;;;;;;5118070;27;20016;-76
2022/09/23 06:08:11;;;;;;;16.75;9.75;;;282.40;2278.40;;;;;;5094267;28;20031;-77
2022/09/23 06:10:42;;;;;;;14.98;10.05;;;282.50;2278.40;;;;;;5094423;28;20382;-77
2022/09/23 06:13:09;;;;;;;15.18;10.75;;;282.50;2278.40;;;;;;5108639;28;20027;-76
2022/09/23 06:15:36;;;;;;;19.25;10.88;;;307.20;2304.00;;;;;;5094714;28;20491;-76
2022/09/23 06:18:02;;;;;;;15.30;10.57;;;307.30;2304.00;;;;;;5092020;28;20035;-76
2022/09/23 06:20:28;;;;;;;17.70;10.73;;;307.40;2304.00;;;;;;5112894;28;20444;-76
2022/09/23 06:22:55;;;;;;;16.88;9.98;;;307.40;2304.00;;;;;;5093437;28;20039;-77
2022/09/23 06:25:21;;;;;;;17.08;11.13;;;307.50;2304.00;;;;;;5112477;28;20022;-76
2022/09/23 06:27:54;;;;;;;20.08;10.85;;;307.50;2304.00;;;;;;5128020;27;20031;-75
2022/09/23 06:30:22;;;;;;;15.23;10.23;;;307.50;2304.00;;;;;;5114819;28;20480;-75
2022/09/23 06:32:52;;;;;;;16.17;11.45;;;307.60;2304.00;;;;;;5095248;28;20030;-77
2022/09/23 06:35:19;;;;;;;15.55;10.43;;;307.80;2304.00;;;;;;5117866;28;20065;-76
2022/09/23 06:37:45;;;;;;;16.70;10.88;;;308.00;2304.00;;;;;;5094162;28;20028;-75
2022/09/23 06:40:11;;;;;;;15.75;9.57;;;308.00;2304.00;;;;;;5112148;28;20026;-76
2022/09/23 06:42:37;;;;;;;13.52;10.43;;;308.10;2304.00;;;;;;5112468;28;20111;-77
2022/09/23 06:45:03;;;;;;;18.48;10.50;;;332.80;2329.60;;;;;;5128022;28;20115;-76
2022/09/23 06:47:28;;;;;;;15.30;9.52;;;332.90;2329.60;;;;;;5112084;28;20093;-77
2022/09/23 06:49:54;;;;;;;17.17;10.75;;;333.00;2329.60;;;;;;5094200;28;20065;-77
2022/09/23 06:52:20;;;;;;;16.80;9.63;;;333.20;2329.60;;;;;;5112387;28;20028;-76
2022/09/23 06:54:49;;;;;;;13.95;11.02;;;333.20;2329.60;;;;;;5112238;28;20050;-76
2022/09/23 06:57:15;;;;;;;12.32;9.48;;;333.40;2329.60;;;;;;5112254;28;20465;-76
2022/09/23 06:59:41;;;;;;;13.48;9.95;;;333.50;2329.60;;;;;;5093979;28;20031;-76
2022/09/23 07:02:08;;;;;;;15.48;10.75;;;333.60;2329.60;;;;;;5093720;28;20373;-77
2022/09/23 07:04:34;;;;;;;14.43;11.02;;;333.70;2329.60;;;;;;5128284;28;20049;-77
2022/09/23 07:07:00;;;;;;;16.80;10.20;;;358.40;2329.60;;;;;;5111862;28;20477;-77
2022/09/23 07:09:26;;;;;;;14.38;9.75;;;358.50;2329.60;;;;;;5112054;28;20036;-77
2022/09/23 07:11:52;;;;;;;14.27;10.07;;;358.50;2329.60;;;;;;5118835;28;20035;-76
2022/09/23 07:14:18;;;;;;;14.88;10.15;;;358.60;2329.60;;;;;;5132587;28;20134;-76
2022/09/23 07:16:44;;;;;;;13.82;9.63;;;358.60;2329.60;;;;;;5110686;28;20119;-77
2022/09/23 07:19:11;;;;;;;14.88;9.75;;;358.70;2329.60;;;;;;5111917;28;20034;-77
2022/09/23 07:21:36;;;;;;;14.80;10.13;;;358.70;2329.60;;;;;;5114991;28;20079;-76
2022/09/23 07:24:03;;;;;;;13.05;9.35;;;358.80;2329.60;;;;;;5123493;28;20020;-77
2022/09/23 07:26:32;;;;;;;14.02;10.23;;;358.80;2329.60;;;;;;5127448;28;20019;-77
2022/09/23 07:29:03;;;;;;;12.25;9.48;;;358.80;2329.60;;;;;;5110389;28;20051;-77
2022/09/23 07:31:30;;;;;;;17.23;9.88;;;358.80;2329.60;;;;;;5111448;28;20023;-75
2022/09/23 07:33:58;;;;;;;13.02;9.23;;;358.80;2329.60;;;;;;5118611;28;20019;-76
2022/09/23 07:36:26;;;;;;;13.75;10.15;;;358.80;2329.60;;;;;;5101199;28;20027;-76
2022/09/23 07:38:59;;;;;;;15.80;9.75;;;358.80;2329.60;;;;;;5111851;28;20425;-76
2022/09/23 07:41:27;;;;;;;14.15;9.50;;;358.80;2329.60;;;;;;5093377;28;20020;-75
2022/09/23 07:43:57;;;;;;;16.88;10.55;;;358.80;2329.60;;;;;;5095003;28;20027;-75
2022/09/23 07:46:24;;;;;;;12.45;9.18;;;358.70;2329.60;;;;;;5115377;28;20457;-76
2022/09/23 07:48:50;;;;;;;16.15;9.02;;;358.70;2329.60;;;;;;5115212;28;20028;-76
2022/09/23 07:51:20;;;;;;;11.82;8.95;;;358.70;2329.60;;;;;;5115511;28;20384;-76
2022/09/23 07:53:48;;;;;;;12.45;8.82;;;358.80;2329.60;;;;;;5129671;27;20027;-76
2022/09/23 07:56:14;;;;;;;12.05;8.85;;;358.80;2329.60;;;;;;5115452;28;20427;-76
2022/09/23 07:58:40;;;;;;;13.50;9.70;;;358.90;2329.60;;;;;;5115089;28;20073;-77
2022/09/23 08:01:07;;;;;;;14.73;9.98;;;359.30;2329.60;;;;;;5111237;28;20028;-77
2022/09/23 08:03:34;;;;;;;17.27;9.70;;;359.00;2329.60;;;;;;5096661;28;20024;-76
2022/09/23 08:06:08;;;;;;;13.88;7.65;;;359.00;2329.60;;;;;;5129679;27;20476;-77
2022/09/23 08:08:35;;;;;;;11.40;8.50;;;359.00;2329.60;;;;;;5113853;28;20493;-78
2022/09/23 08:11:05;;;;;;;10.68;7.68;;;359.30;2329.60;;;;;;5096425;28;20043;-76
2022/09/23 08:13:32;;;;;;;11.80;7.32;;;359.00;2329.60;;;;;;5089148;27;20118;-77
2022/09/23 08:15:58;;;;;;;17.75;7.55;;;359.00;2329.60;;;;;;5104368;28;20369;-77
2022/09/23 08:18:24;;;;;;;9.82;7.13;;;359.00;2329.60;;;;;;5114817;28;20026;-77
2022/09/23 08:20:50;;;;;;;10.77;7.43;;;358.90;2329.60;;;;;;5113615;28;20077;-78
2022/09/23 08:23:17;;;;;;;9.43;6.43;;;359.10;2329.60;;;;;;5119908;27;20032;-76
2022/09/23 08:25:47;;;;;;;7.88;5.20;;;359.10;2329.60;;;;;;5101930;27;20020;-77
2022/09/23 08:28:17;;;;;;;6.35;4.15;;;359.10;2329.60;;;;;;5119939;27;20035;-77
2022/09/23 08:30:46;;;;;;;8.13;5.18;;;359.20;2329.60;;;;;;5121245;27;20019;-77
2022/09/23 08:33:12;;;;;;;11.45;5.35;;;359.20;2329.60;;;;;;5117067;27;20015;-76
2022/09/23 08:35:38;;;;;;;6.97;4.30;;;359.20;2329.60;;;;;;5111922;27;20038;-77
2022/09/23 08:38:05;;;;;;;7.10;4.75;;;359.20;2329.60;;;;;;5103577;27;20036;-76
2022/09/23 08:40:37;;;;;;;6.38;4.43;;;384.00;2329.60;;;;;;5119698;27;20427;-75
2022/09/23 08:43:20;;;;;;;9.10;6.65;;;384.00;2329.60;;;;;;5118443;27;20047;-77
2022/09/23 08:45:46;;;;;;;14.45;11.43;;;384.20;2329.60;;;;;;5118095;27;20026;-76
2022/09/23 08:48:19;;;;;;;8.82;5.35;;;384.20;2329.60;;;;;;5103727;28;20035;-77
2022/09/23 08:50:57;;;;;;;9.68;5.47;;;384.30;2329.60;;;;;;5119425;27;20555;-76
2022/09/23 08:53:44;;;;;;;9.38;5.80;;;384.40;2329.60;;;;;;5123348;27;20023;-76
2022/09/23 08:56:18;;;;;;;9.07;5.95;;;384.40;2329.60;;;;;;5102456;27;20099;-77
2022/09/23 08:58:59;;;;;;;8.75;5.32;;;384.50;2329.60;;;;;;5103561;27;20011;-77
2022/09/23 09:01:44;;;;;;;8.98;5.40;;;384.70;2329.60;;;;;;5121790;27;20023;-72
2022/09/23 09:04:15;;;;;;;9.10;5.97;;;384.80;2329.60;;;;;;5125076;27;20366;-76
2022/09/23 09:06:46;;;;;;;16.88;6.53;;;384.90;2329.60;;;;;;5097404;28;20092;-75
2022/09/23 09:09:26;;;;;;;13.05;6.38;;;409.70;2355.20;;;;;;5124198;27;20112;-75
2022/09/23 09:12:02;;;;;;;8.60;6.65;;;409.80;2355.20;;;;;;5122105;27;20031;-76
2022/09/23 09:15:06;;;;;;;10.77;6.82;;;409.80;2355.20;;;;;;5119827;27;20028;-75
2022/09/23 09:17:37;;;;;;;11.68;7.32;;;410.00;2355.20;;;;;;5104670;28;20365;-77
2022/09/23 09:20:18;;;;;;;8.18;5.82;;;410.20;2355.20;;;;;;5129619;27;20093;-76
2022/09/23 09:22:59;;;;;;;8.77;5.95;;;410.30;2355.20;;;;;;5126264;27;20047;-77
2022/09/23 09:25:44;;;;;;;9.27;6.32;;;410.30;2355.20;;;;;;5113673;28;20076;-76
2022/09/23 09:28:29;;;;;;;12.27;6.40;;;410.50;2355.20;;;;;;5095063;28;20028;-76
2022/09/23 09:31:13;;;;;;;8.82;6.22;;;435.20;2355.20;;;;;;5092095;28;20421;-77
2022/09/23 09:34:15;;;;;;;11.68;7.15;;;435.30;2355.20;;;;;;5093213;28;20019;-76
2022/09/23 09:36:47;;;;;;;8.50;6.40;;;435.50;2355.20;;;;;;5113110;28;20020;-76
2022/09/23 09:39:14;;;;;;;9.55;6.47;;;435.50;2355.20;;;;;;5118421;27;20027;-77
2022/09/23 09:41:44;;;;;;;9.15;6.75;;;435.60;2355.20;;;;;;5114988;27;20055;-78
2022/09/23 09:44:26;;;;;;;10.32;6.65;;;435.80;2355.20;;;;;;5118159;27;20020;-78
2022/09/23 09:47:07;;;;;;;10.68;7.25;;;435.90;2355.20;;;;;;5112526;27;20032;-78
2022/09/23 09:50:02;;;;;;;9.93;6.32;;;435.60;2355.20;;;;;;5102944;27;20119;-77
2022/09/23 09:52:31;;;;;;;8.48;6.38;;;435.50;2355.20;;;;;;5131693;27;20030;-77
2022/09/23 09:55:11;;;;;;;8.98;5.80;;;435.50;2355.20;;;;;;5118782;27;20015;-77
2022/09/23 09:58:03;;;;;;;7.75;5.65;;;435.70;2355.20;;;;;;5124413;27;20041;-78
2022/09/23 10:00:29;;;;;;;8.73;6.57;;;436.10;2355.20;;;;;;5119897;27;20025;-77
2022/09/23 10:02:55;;;;;;;15.02;6.10;;;460.90;2380.80;;;;;;5120375;27;20019;-77
2022/09/23 10:05:27;;;;;;;11.95;6.30;;;460.90;2380.80;;;;;;5097327;28;20063;-77
2022/09/23 10:07:53;;;;;;;9.60;6.60;;;461.20;2380.80;;;;;;5116816;27;20076;-76
2022/09/23 10:10:24;;;;;;;16.15;8.93;;;461.00;2380.80;;;;;;5105009;28;20485;-77
2022/09/23 10:12:51;;;;;;;9.38;4.97;;;460.90;2380.80;;;;;;5099734;28;20473;-76
2022/09/23 10:15:30;;;;;;;9.73;5.70;;;461.30;2380.80;;;;;;5119542;27;20064;-77
2022/09/23 10:18:00;;;;;;;6.95;4.85;;;461.50;2380.80;;;;;;5096664;28;20020;-79
2022/09/23 10:20:31;;;;;;;7.00;4.93;;;460.80;2380.80;;;;;;5112802;28;20027;-78
2022/09/23 10:23:13;;;;;;;7.05;4.97;;;460.90;2380.80;;;;;;5127307;27;20023;-78
2022/09/23 10:25:40;;;;;;;6.80;4.45;;;461.50;2380.80;;;;;;5128603;27;20020;-77
2022/09/23 10:28:49;;;;;;;8.43;4.38;;;486.50;2380.80;;;;;;5112339;28;20122;-79
2022/09/23 10:31:33;;;;;;;6.30;4.15;;;486.80;2355.20;;;;;;5029723;28;20034;-79
2022/09/23 10:34:19;;;;;;;6.00;3.88;;;486.80;2201.60;;;;;;5013510;28;20041;-79
2022/09/23 10:36:54;;;;;;;6.20;4.32;;;487.00;2201.60;;;;;;5043970;28;20071;-78
2022/09/23 10:48:18;;;;;;;7.32;4.35;;;487.10;2227.20;;;;;;5029814;28;20053;-77
2022/09/23 10:50:49;;;;;;;5.82;4.00;;;487.30;2073.60;;;;;;5017891;28;20143;-77
2022/09/23 10:53:40;;;;;;;6.53;4.40;;;487.10;2124.80;;;;;;5037085;28;20048;-77
2022/09/23 10:56:09;;;;;;;9.45;4.28;;;512.10;2048.00;;;;;;5030056;28;20494;-78
2022/09/23 10:58:49;;;;;;;4.53;3.10;;;487.30;2150.40;;;;;;5006888;28;20067;-77
2022/09/23 11:01:43;;;;;;;5.18;3.20;;;486.70;2201.60;;;;;;5034383;28;20069;-77
2022/09/23 11:04:27;;;;;;;5.97;3.65;;;486.60;2227.20;;;;;;5016537;28;20034;-78
2022/09/23 11:07:12;;;;;;;5.50;4.20;;;486.50;2150.40;;;;;;5040720;28;20021;-77
2022/09/23 11:10:00;;;;;;;7.57;4.22;;;461.50;2304.00;;;;;;5101674;28;20114;-78
2022/09/23 11:12:43;;;;;;;5.70;3.53;;;461.40;2380.80;;;;;;5123461;28;20054;-77
2022/09/23 11:15:13;;;;;;;4.78;3.25;;;461.30;2355.20;;;;;;5099888;28;20026;-77
2022/09/23 11:18:16;;;;;;;4.97;3.17;;;486.40;2252.80;;;;;;5098461;28;20065;-77
2022/09/23 11:20:55;;;;;;;6.55;3.10;;;486.80;2227.20;;;;;;5105088;28;20091;-77
2022/09/23 11:23:20;;;;;;;5.43;3.53;;;486.40;2201.60;;;;;;5130418;27;20030;-78
2022/09/23 11:26:04;;;;;;;6.80;4.32;;;461.40;2380.80;;;;;;5125559;27;20020;-77
2022/09/23 11:28:46;;;;;;;9.52;6.22;;;461.20;2380.80;;;;;;5096487;28;20059;-77
2022/09/23 11:31:56;;;;;;;10.43;7.68;;;461.10;2380.80;;;;;;5088662;28;20026;-77
2022/09/23 11:34:24;;;;;;;10.38;4.90;;;461.00;2380.80;;;;;;5112427;27;20131;-77
2022/09/23 11:37:22;;;;;;;10.05;4.40;;;460.90;2380.80;;;;;;5131320;27;20034;-77
2022/09/23 11:39:55;;;;;;;9.70;6.07;;;460.80;2380.80;;;;;;5122170;27;20039;-77
2022/09/23 11:42:25;;;;;;;9.68;4.05;;;461.10;2380.80;;;;;;5129220;27;20106;-77
2022/09/23 11:45:00;;;;;;;5.50;4.05;;;461.70;2355.20;;;;;;5118721;27;20011;-77
2022/09/23 11:47:41;;;;;;;5.88;3.90;;;461.60;2278.40;;;;;;5120825;27;20127;-77
2022/09/23 11:50:31;;;;;;;5.82;3.55;;;486.50;2252.80;;;;;;5115140;27;20045;-77
2022/09/23 11:53:07;;;;;;;6.15;3.45;;;461.70;2201.60;;;;;;5109025;27;20426;-78
2022/09/23 11:55:55;;;;;;;7.40;3.90;;;461.30;2278.40;;;;;;5123575;27;20026;-77
2022/09/23 11:59:04;;;;;;;9.77;3.33;;;461.10;2355.20;;;;;;5108280;27;20028;-77
2022/09/23 12:01:34;;;;;;;8.70;3.75;;;461.00;2380.80;;;;;;5032189;28;20545;-77
2022/09/23 12:04:05;;;;;;;5.60;3.83;;;461.10;2380.80;;;;;;5026232;28;20049;-78
2022/09/23 12:06:47;;;;;;;4.63;3.40;;;461.00;2355.20;;;;;;5037933;28;20515;-77
2022/09/23 12:09:31;;;;;;;5.57;4.05;;;461.00;2355.20;;;;;;5028823;28;20196;-77
2022/09/23 12:12:12;;;;;;;9.05;3.33;;;461.00;2329.60;;;;;;5014825;28;20046;-78
2022/09/23 12:14:47;;;;;;;4.97;3.28;;;461.00;2355.20;;;;;;5031920;28;20025;-77
2022/09/23 12:17:18;;;;;;;6.00;3.47;;;461.00;2329.60;;;;;;5031362;28;20119;-78
2022/09/23 12:20:20;;;;;;;8.20;3.95;;;461.00;2355.20;;;;;;5014863;28;20116;-77
2022/09/23 12:23:12;;;;;;;6.55;3.78;;;461.00;2355.20;;;;;;5031830;28;20523;-78
2022/09/23 12:25:45;;;;;;;10.48;3.65;;;461.00;2380.80;;;;;;5012671;28;20103;-77
2022/09/23 12:28:25;;;;;;;4.50;3.17;;;461.00;2380.80;;;;;;5031118;28;20040;-76
2022/09/23 12:30:54;;;;;;;5.35;3.17;;;461.00;2380.80;;;;;;5030093;28;20033;-78
2022/09/23 12:33:26;;;;;;;4.65;3.17;;;461.00;2329.60;;;;;;5015024;28;20025;-77
2022/09/23 12:36:05;;;;;;;5.35;4.10;;;461.00;2380.80;;;;;;5019897;28;20037;-77
2022/09/23 12:38:37;;;;;;;8.05;5.90;;;461.00;2380.80;;;;;;5080498;27;20060;-77
2022/09/23 12:41:22;;;;;;;5.60;3.90;;;461.00;2380.80;;;;;;5125475;27;20076;-77
2022/09/23 12:43:54;;;;;;;6.22;3.83;;;460.80;2380.80;;;;;;5115820;27;20024;-77
2022/09/23 12:46:26;;;;;;;7.03;3.72;;;461.40;2380.80;;;;;;5116528;27;20035;-78
2022/09/23 12:48:58;;;;;;;7.40;3.80;;;461.20;2380.80;;;;;;5099924;28;20051;-78